Time;durP1;ratioP1;P1;durP2;ratioP2;P2;SDS_P1;SDS_P2;PMS_P1;PMS_P2;Temp;Humidity;BMP_temperature;BMP_pressure;BME280_temperature;BME280_humidity;BME280_pressure;Samples;Min_cycle;Max_cycle;Signal;HPM_P1;HPM_P2
2023/02/21 09:28:01;;;;;;;4.60;2.90;;;;;;;8.69;74.47;98168.71;102912;1296;648615;-74
2023/02/21 09:30:29;;;;;;;12.30;4.40;;;;;;;8.72;74.09;98163.70;104444;1270;132393;-74
2023/02/21 09:32:57;;;;;;;6.60;3.40;;;;;;;8.73;74.16;98164.55;104966;1257;94672;-72
2023/02/21 09:35:25;;;;;;;9.00;4.30;;;;;;;8.82;74.04;98158.91;104924;1259;107625;-75
2023/02/21 09:37:54;;;;;;;6.50;3.40;;;;;;;8.92;74.30;98161.30;105222;1259;101331;-72
2023/02/21 09:40:35;;;;;;;7.70;2.90;;;;;;;8.91;73.81;98167.01;105026;1260;108432;-74
2023/02/21 09:43:11;;;;;;;4.00;2.30;;;;;;;8.83;73.94;98184.64;105105;1256;94327;-71
2023/02/21 09:45:38;;;;;;;11.50;4.20;;;;;;;8.71;74.26;98186.10;104901;1257;94325;-71
2023/02/21 09:48:14;;;;;;;8.90;3.80;;;;;;;8.62;74.56;98191.39;105043;1257;106265;-73
2023/02/21 09:50:50;;;;;;;13.50;4.90;;;;;;;8.51;75.14;98192.42;105169;1257;99756;-73
2023/02/21 09:53:24;;;;;;;12.10;4.10;;;;;;;8.48;75.10;98199.02;105193;1258;106675;-75
2023/02/21 09:55:59;;;;;;;9.50;3.80;;;;;;;8.46;75.11;98201.76;104886;1252;95695;-73
2023/02/21 09:58:27;;;;;;;9.30;3.60;;;;;;;8.45;75.19;98211.92;105026;1256;95355;-74
2023/02/21 10:01:05;;;;;;;6.10;3.00;;;;;;;8.40;75.56;98227.90;105105;1253;108109;-75
2023/02/21 10:03:45;;;;;;;6.30;3.10;;;;;;;8.33;75.68;98226.58;104831;1276;101124;-74
2023/02/21 10:06:38;;;;;;;6.30;3.10;;;;;;;8.34;75.83;98228.63;105237;1270;107322;-75
2023/02/21 10:09:36;;;;;;;6.10;2.60;;;;;;;8.34;75.46;98220.75;105148;1256;95191;-74
2023/02/21 10:12:21;;;;;;;5.20;2.80;;;;;;;8.31;75.23;98214.77;105091;1253;96081;-73
2023/02/21 10:15:28;;;;;;;6.90;3.00;;;;;;;8.26;75.53;98204.38;105228;1257;109151;-75
2023/02/21 10:18:12;;;;;;;16.40;4.90;;;;;;;8.22;75.08;98206.30;104931;1257;101273;-73
2023/02/21 10:20:48;;;;;;;8.60;3.40;;;;;;;8.22;75.34;98198.35;104841;1267;105822;-74
2023/02/21 10:23:23;;;;;;;7.70;2.90;;;;;;;8.25;75.39;98201.11;105143;1256;95420;-71
2023/02/21 10:25:58;;;;;;;4.40;2.40;;;;;;;8.27;75.11;98195.80;105180;1253;95610;-74
2023/02/21 10:28:26;;;;;;;4.10;2.60;;;;;;;8.31;75.32;98192.49;105154;1257;108456;-74
2023/02/21 10:30:58;;;;;;;4.90;3.10;;;;;;;8.40;75.27;98191.65;105002;1270;101382;-75
2023/02/21 10:33:28;;;;;;;4.00;2.20;;;;;;;8.59;75.21;98207.70;108482;1253;107640;-72
2023/02/21 10:35:56;;;;;;;11.40;4.30;;;;;;;8.82;75.35;98211.09;108716;1253;93113;-72
2023/02/21 10:38:25;;;;;;;4.20;2.40;;;;;;;8.97;74.61;98208.13;108060;1253;95307;-75
2023/02/21 10:41:02;;;;;;;6.10;3.10;;;;;;;9.11;74.76;98208.61;105169;1254;109156;-73
2023/02/21 10:43:35;;;;;;;9.50;4.60;;;;;;;9.27;74.03;98217.21;104817;1255;100326;-73
2023/02/21 10:46:15;;;;;;;4.00;2.40;;;;;;;9.34;73.67;98215.78;104905;1259;107105;-74
2023/02/21 10:48:45;;;;;;;13.00;5.40;;;;;;;9.45;73.48;98208.12;104947;1273;96117;-74
2023/02/21 10:51:15;;;;;;;7.80;3.60;;;;;;;9.59;73.34;98219.42;105139;1256;95175;-75
2023/02/21 10:53:46;;;;;;;10.30;4.10;;;;;;;9.61;72.42;98225.04;105320;1256;108264;-74
2023/02/21 10:56:14;;;;;;;7.90;3.90;;;;;;;9.58;72.04;98226.90;105212;1267;100919;-74
2023/02/21 10:58:44;;;;;;;6.70;3.60;;;;;;;9.55;71.96;98224.52;105247;1257;107586;-75
2023/02/21 11:01:30;;;;;;;6.00;3.10;;;;;;;9.60;71.92;98217.54;105052;1268;95271;-75
2023/02/21 11:04:06;;;;;;;7.00;2.90;;;;;;;9.62;70.60;98220.06;104870;1256;95764;-74
2023/02/21 11:06:38;;;;;;;5.00;2.60;;;;;;;9.67;69.59;98221.35;104942;1257;108452;-75
2023/02/21 11:09:33;;;;;;;3.50;2.10;;;;;;;9.72;69.03;98214.31;105093;1257;102039;-75
2023/02/21 11:12:17;;;;;;;5.70;2.60;;;;;;;9.82;68.36;98217.11;104971;1257;106451;-73
2023/02/21 11:14:51;;;;;;;6.20;2.50;;;;;;;10.02;68.70;98213.55;104851;1255;95276;-74
2023/02/21 11:17:22;;;;;;;5.80;2.60;;;;;;;10.13;68.04;98208.52;105211;1253;95691;-74
2023/02/21 11:20:08;;;;;;;3.50;2.20;;;;;;;10.21;66.61;98221.73;105276;1253;108108;-69
2023/02/21 11:22:42;;;;;;;4.50;2.20;;;;;;;10.24;66.91;98228.06;105068;1256;101433;-74
2023/02/21 11:25:10;;;;;;;11.40;4.20;;;;;;;10.20;67.21;98225.87;104903;1257;107625;-74
2023/02/21 11:27:39;;;;;;;16.30;6.30;;;;;;;10.21;67.18;98233.55;104966;1257;95304;-76
2023/02/21 11:30:19;;;;;;;4.00;2.60;;;;;;;10.23;65.67;98247.21;105004;1253;95768;-73
2023/02/21 11:32:55;;;;;;;10.70;4.30;;;;;;;10.26;64.96;98244.86;104824;1256;108150;-73
2023/02/21 11:35:25;;;;;;;6.60;3.50;;;;;;;10.32;64.68;98243.45;105291;1267;100892;-75
2023/02/21 11:38:00;;;;;;;5.00;2.60;;;;;;;10.43;66.05;98238.83;104821;1267;107654;-74
2023/02/21 11:40:36;;;;;;;20.80;2.70;;;;;;;10.62;65.52;98246.95;105164;1259;95367;-73
2023/02/21 11:43:31;;;;;;;4.60;2.10;;;;;;;10.69;65.82;98233.84;105127;1256;96230;-73
2023/02/21 11:46:03;;;;;;;7.70;3.30;;;;;;;10.60;64.36;98246.27;104818;1257;108721;-73
2023/02/21 11:48:44;;;;;;;11.10;4.80;;;;;;;10.50;64.09;98255.08;105017;1269;100535;-74
2023/02/21 11:51:25;;;;;;;5.10;2.40;;;;;;;10.41;63.72;98253.31;104842;1267;107962;-74
2023/02/21 11:53:53;;;;;;;6.40;2.90;;;;;;;10.37;62.44;98253.35;105091;1256;96170;-74
2023/02/21 11:56:47;;;;;;;7.30;3.00;;;;;;;10.36;61.83;98259.76;105333;1253;96066;-72
2023/02/21 11:59:22;;;;;;;;;;;;;;;10.38;60.82;98256.79;104843;1276;108117;-72
2023/02/21 12:02:25;;;;;;;6.30;3.30;;;;;;;10.46;61.47;98244.79;105123;1257;100598;-74
2023/02/21 12:05:16;;;;;;;3.30;2.30;;;;;;;10.55;63.84;98249.66;104822;1257;107459;-73
2023/02/21 12:08:15;;;;;;;8.30;3.40;;;;;;;10.48;61.91;98251.94;105177;1254;95305;-74
2023/02/21 12:10:58;;;;;;;15.80;5.20;;;;;;;10.35;64.05;98258.44;105115;1257;96447;-74
2023/02/21 12:13:45;;;;;;;14.50;4.10;;;;;;;10.21;63.20;98261.73;105056;1257;108551;-74
2023/02/21 12:16:32;;;;;;;10.30;3.40;;;;;;;10.14;62.94;98265.56;104979;1270;102026;-72
2023/02/21 12:19:29;;;;;;;7.40;2.90;;;;;;;10.06;63.13;98267.61;105006;1254;108140;-74
2023/02/21 12:22:07;;;;;;;9.50;3.70;;;;;;;10.02;63.52;98267.74;105035;1256;96184;-73
2023/02/21 12:24:56;;;;;;;11.10;3.80;;;;;;;10.03;63.57;98268.53;105221;1253;95720;-73
2023/02/21 12:27:44;;;;;;;9.20;2.90;;;;;;;10.06;63.60;98272.91;105309;1254;109178;-73
2023/02/21 12:30:40;;;;;;;17.70;4.90;;;;;;;10.06;63.43;98271.70;105093;1261;100958;-73
2023/02/21 12:33:33;;;;;;;19.80;6.70;;;;;;;10.13;62.38;98277.70;105092;1276;107575;-73
2023/02/21 12:36:15;;;;;;;17.60;5.80;;;;;;;10.25;63.85;98266.23;104876;1253;95377;-73
2023/02/21 12:38:59;;;;;;;7.80;2.60;;;;;;;10.32;59.65;98263.51;105075;1256;95675;-74
2023/02/21 12:41:56;;;;;;;15.20;5.90;;;;;;;10.29;57.95;98275.95;105109;1254;108278;-74
2023/02/21 12:44:40;;;;;;;10.70;4.30;;;;;;;10.25;56.75;98298.45;104993;1257;100835;-74
2023/02/21 12:47:10;;;;;;;;;;;;;;;10.25;57.72;98273.27;104931;1254;107871;-74
2023/02/21 12:49:57;;;;;;;12.90;4.10;;;;;;;10.25;58.17;98277.86;105018;1257;95381;-72
2023/02/21 12:52:30;;;;;;;19.90;6.30;;;;;;;10.25;57.17;98283.02;104854;1254;95710;-75
2023/02/21 12:55:23;;;;;;;16.50;5.80;;;;;;;10.25;57.53;98284.29;104878;1257;108568;-74
2023/02/21 13:37:27;;;;;;;4.70;2.10;;;;;;;10.40;56.74;98293.69;102801;1296;649057;-78
2023/02/21 13:40:17;;;;;;;8.20;3.10;;;;;;;10.42;56.99;98291.36;103933;1273;118523;-74
2023/02/21 13:42:45;;;;;;;3.50;2.00;;;;;;;10.44;58.03;98292.12;103981;1267;95112;-74
2023/02/21 13:45:23;;;;;;;6.20;2.60;;;;;;;10.48;57.64;98290.70;104462;1270;107164;-74
2023/02/21 13:47:52;;;;;;;8.00;2.70;;;;;;;10.52;57.60;98301.89;104178;1280;100884;-75
2023/02/21 13:50:33;;;;;;;7.00;2.80;;;;;;;10.53;56.29;98303.21;104100;1280;107210;-72
2023/02/21 13:53:07;;;;;;;10.60;3.80;;;;;;;10.54;57.17;98295.38;104365;1269;94427;-74
2023/02/21 13:55:37;;;;;;;7.90;3.10;;;;;;;10.56;56.63;98307.08;104125;1280;94344;-75
2023/02/21 13:58:06;;;;;;;13.20;4.90;;;;;;;10.58;57.70;98306.58;104435;1266;105329;-75
2023/02/21 14:00:34;;;;;;;10.00;3.90;;;;;;;10.55;57.31;98302.55;104463;1266;100872;-73
2023/02/21 14:03:17;;;;;;;9.10;3.00;;;;;;;10.43;57.75;98310.27;104341;1266;108963;-74
2023/02/21 14:05:51;;;;;;;11.30;3.30;;;;;;;10.26;57.36;98311.67;104333;1267;95375;-73
2023/02/21 14:08:19;;;;;;;11.50;2.60;;;;;;;10.15;57.58;98304.59;104361;1265;95297;-73
2023/02/21 14:10:52;;;;;;;7.30;3.30;;;;;;;10.07;57.53;98321.17;104537;1264;109101;-74
2023/02/21 14:13:57;;;;;;;6.60;3.10;;;;;;;9.96;57.11;98324.41;104431;1267;101554;-74
2023/02/21 14:16:28;;;;;;;13.00;4.80;;;;;;;9.86;57.33;98331.05;104429;1276;107248;-73
2023/02/21 14:19:08;;;;;;;14.00;5.90;;;;;;;9.78;57.18;98331.67;104553;1262;95276;-74
2023/02/21 14:21:38;;;;;;;13.50;6.20;;;;;;;9.63;56.62;98336.96;104567;1260;95385;-73
2023/02/21 14:24:09;;;;;;;21.10;9.50;;;;;;;9.48;57.57;98333.92;104479;1262;107263;-73
2023/02/21 14:26:55;;;;;;;17.20;6.00;;;;;;;9.35;58.33;98335.45;104641;1262;100872;-75
2023/02/21 14:29:32;;;;;;;16.90;4.80;;;;;;;9.22;57.84;98342.34;104511;1263;107172;-75
2023/02/21 14:32:03;;;;;;;21.00;7.30;;;;;;;9.12;58.07;98351.08;104956;1257;95318;-74
2023/02/21 14:34:32;;;;;;;22.00;9.00;;;;;;;9.03;58.04;98353.48;104439;1257;95438;-74
2023/02/21 14:37:10;;;;;;;19.20;6.20;;;;;;;8.95;58.02;98360.33;104807;1262;109226;-72
2023/02/21 14:39:42;;;;;;;23.40;8.50;;;;;;;8.90;57.95;98366.57;104981;1264;100650;-70
2023/02/21 14:42:41;;;;;;;21.20;6.80;;;;;;;8.89;58.27;98365.73;104518;1273;106071;-73
2023/02/21 14:45:10;;;;;;;23.70;7.10;;;;;;;8.91;57.64;98370.71;104266;1262;95324;-72
2023/02/21 14:47:47;;;;;;;14.60;4.10;;;;;;;8.93;58.10;98369.98;104922;1258;95292;-75
2023/02/21 14:50:38;;;;;;;15.60;5.10;;;;;;;8.97;57.73;98374.00;104794;1260;109378;-71
2023/02/21 14:53:27;;;;;;;14.30;4.90;;;;;;;9.00;57.95;98375.13;108558;1255;101083;-73
2023/02/21 14:56:14;;;;;;;17.20;6.00;;;;;;;9.02;58.21;98375.66;108547;1255;107426;-75
2023/02/21 14:59:00;;;;;;;12.10;4.20;;;;;;;9.04;58.08;98378.39;107134;1260;95231;-74
2023/02/21 15:01:49;;;;;;;16.00;5.30;;;;;;;9.03;58.03;98380.05;105012;1256;95142;-73
2023/02/21 15:04:32;;;;;;;9.40;3.40;;;;;;;8.97;57.53;98387.05;104784;1259;108981;-73
2023/02/21 15:07:25;;;;;;;9.90;3.50;;;;;;;8.95;57.63;98385.45;104775;1264;100911;-74
2023/02/21 15:10:17;;;;;;;14.40;4.40;;;;;;;8.95;57.67;98385.10;105024;1260;107612;-74
2023/02/21 15:12:54;;;;;;;15.60;5.30;;;;;;;8.96;57.72;98388.73;104981;1261;96166;-73
2023/02/21 15:15:25;;;;;;;14.20;4.40;;;;;;;8.92;57.69;98396.40;105045;1258;95197;-73
2023/02/21 15:18:37;;;;;;;12.20;3.70;;;;;;;8.90;57.63;98392.89;104820;1256;109073;-74
2023/02/21 15:21:10;;;;;;;11.50;3.20;;;;;;;8.83;57.52;98410.08;104642;1261;100073;-74
2023/02/21 15:23:59;;;;;;;11.80;3.60;;;;;;;8.79;57.79;98401.45;105411;1255;107489;-74
2023/02/21 15:26:30;;;;;;;19.70;6.80;;;;;;;8.75;57.59;98401.42;105383;1258;95235;-73
2023/02/21 15:29:13;;;;;;;15.80;5.80;;;;;;;8.73;58.16;98404.98;105324;1257;96734;-73
2023/02/21 15:31:41;;;;;;;18.50;6.40;;;;;;;8.67;57.87;98399.77;105299;1256;108537;-73
2023/02/21 15:34:20;;;;;;;20.90;6.20;;;;;;;8.61;57.76;98410.61;105346;1259;100519;-73
2023/02/21 15:37:05;;;;;;;21.70;8.90;;;;;;;8.56;58.15;98412.94;105040;1257;108507;-73
2023/02/21 15:39:48;;;;;;;;;;;;;;;;;;;;;
2023/02/21 15:42:20;;;;;;;28.80;9.50;;;;;;;8.52;57.53;98426.16;104925;1257;95167;-75
2023/02/21 15:44:57;;;;;;;28.20;11.10;;;;;;;8.48;57.42;98427.25;104911;1259;109426;-76
2023/02/21 15:47:29;;;;;;;24.60;8.40;;;;;;;8.43;57.63;98425.66;105427;1258;100886;-75
2023/02/21 15:50:04;;;;;;;27.80;10.80;;;;;;;8.35;57.48;98433.14;104789;1264;106640;-75
2023/02/21 15:52:42;;;;;;;24.70;8.80;;;;;;;8.27;57.74;98437.80;105067;1259;96060;-76
2023/02/21 15:55:19;;;;;;;24.60;7.20;;;;;;;8.19;57.79;98437.13;104983;1258;95469;-74
2023/02/21 15:58:00;;;;;;;24.50;8.20;;;;;;;8.14;57.44;98442.81;104813;1256;108446;-77
2023/02/21 16:00:40;;;;;;;25.40;10.10;;;;;;;8.10;57.98;98445.59;104769;1261;100488;-72
2023/02/21 16:03:27;;;;;;;21.50;8.10;;;;;;;8.06;57.85;98445.52;104922;1259;106717;-75
2023/02/21 16:06:11;;;;;;;16.40;6.00;;;;;;;8.01;58.57;98439.87;104622;1262;95221;-75
2023/02/21 16:08:50;;;;;;;18.50;6.20;;;;;;;7.98;58.57;98444.88;104539;1260;95243;-75
2023/02/21 16:11:19;;;;;;;21.60;6.20;;;;;;;7.94;58.46;98443.73;104657;1260;108877;-76
2023/02/21 16:13:47;;;;;;;17.70;5.60;;;;;;;7.90;58.53;98443.98;105027;1255;101584;-73
2023/02/21 16:16:15;;;;;;;26.40;8.40;;;;;;;7.88;58.57;98449.94;104842;1259;108108;-73
2023/02/21 16:18:44;;;;;;;21.30;7.00;;;;;;;7.87;58.67;98448.67;104735;1259;96164;-77
2023/02/21 16:21:22;;;;;;;21.80;8.10;;;;;;;7.82;58.87;98459.75;104652;1270;95772;-76
2023/02/21 16:23:50;;;;;;;21.60;7.50;;;;;;;7.79;58.86;98470.21;104772;1270;107553;-71
2023/02/21 16:26:26;;;;;;;24.00;8.30;;;;;;;7.77;58.93;98476.54;104912;1261;100885;-70
2023/02/21 16:28:57;;;;;;;27.70;10.90;;;;;;;7.76;58.82;98475.19;104782;1270;108158;-72
2023/02/21 16:31:32;;;;;;;63.80;57.60;;;;;;;7.74;58.86;98476.90;104756;1255;95253;-72
2023/02/21 16:34:00;;;;;;;23.80;14.10;;;;;;;7.71;58.79;98488.92;104935;1256;95154;-70
2023/02/21 16:36:30;;;;;;;24.00;10.30;;;;;;;7.69;58.63;98495.23;104780;1259;108192;-70
2023/02/21 16:38:59;;;;;;;24.50;11.40;;;;;;;7.67;58.63;98504.39;104785;1259;101478;-73
2023/02/21 16:41:27;;;;;;;21.60;8.00;;;;;;;7.65;58.53;98512.14;104868;1274;107640;-71
2023/02/21 16:43:55;;;;;;;28.00;11.40;;;;;;;7.65;58.65;98516.39;105063;1267;95233;-72
2023/02/21 16:46:26;;;;;;;25.30;8.80;;;;;;;7.63;58.66;98518.42;104956;1253;95611;-71
2023/02/21 16:48:58;;;;;;;27.80;9.10;;;;;;;7.64;58.78;98515.54;104902;1258;108795;-70
2023/02/21 16:51:32;;;;;;;21.20;8.00;;;;;;;7.64;58.75;98523.51;104703;1257;100348;-70
2023/02/21 16:54:01;;;;;;;25.80;9.30;;;;;;;7.63;58.31;98519.86;108623;1253;107139;-68
2023/02/21 16:56:30;;;;;;;29.20;10.40;;;;;;;7.61;58.24;98527.58;108619;1253;92911;-69
2023/02/21 16:58:58;;;;;;;25.70;10.90;;;;;;;7.59;58.78;98535.48;105487;1254;95176;-69
2023/02/21 17:01:28;;;;;;;26.10;10.80;;;;;;;7.57;58.16;98543.32;105028;1258;109431;-72
2023/02/21 17:03:56;;;;;;;27.60;8.70;;;;;;;7.55;58.10;98544.52;104940;1253;101161;-69
2023/02/21 17:06:26;;;;;;;20.20;7.90;;;;;;;7.53;57.55;98557.52;104867;1259;108722;-71
2023/02/21 17:08:54;;;;;;;23.80;10.70;;;;;;;7.54;57.68;98553.43;108598;1253;93013;-69
2023/02/21 17:11:22;;;;;;;23.20;8.50;;;;;;;7.52;57.59;98555.69;107265;1257;95624;-69
2023/02/21 17:13:50;;;;;;;23.60;7.10;;;;;;;7.49;57.56;98553.83;105041;1257;109379;-70
2023/02/21 17:16:19;;;;;;;26.30;6.60;;;;;;;7.45;57.71;98561.30;104929;1257;100233;-70
2023/02/21 17:18:47;;;;;;;22.10;7.30;;;;;;;7.40;57.32;98567.95;104948;1257;107100;-70
2023/02/21 17:21:15;;;;;;;24.40;9.90;;;;;;;7.36;57.68;98568.09;104545;1258;95196;-68
2023/02/21 17:23:44;;;;;;;27.90;12.90;;;;;;;7.28;57.29;98576.88;108533;1253;93179;-68
2023/02/21 17:26:15;;;;;;;32.00;13.10;;;;;;;7.25;57.42;98574.98;107170;1255;108536;-69
2023/02/21 17:28:42;;;;;;;39.40;15.90;;;;;;;7.23;56.62;98577.95;104401;1253;100908;-69
2023/02/21 17:31:17;;;;;;;27.10;10.30;;;;;;;7.20;57.50;98578.27;104523;1253;108539;-70
2023/02/21 17:33:45;;;;;;;32.20;15.20;;;;;;;7.15;57.31;98584.60;104624;1258;96054;-71
2023/02/21 17:36:19;;;;;;;51.50;27.80;;;;;;;7.12;57.48;98585.70;104838;1254;96719;-71
2023/02/21 17:38:47;;;;;;;28.60;14.60;;;;;;;7.07;57.24;98589.42;104931;1257;108512;-70
2023/02/21 17:41:19;;;;;;;23.70;9.60;;;;;;;7.01;57.42;98595.38;104926;1258;101447;-72
2023/02/21 17:43:49;;;;;;;27.00;12.10;;;;;;;6.98;57.39;98593.84;105080;1259;107698;-72
2023/02/21 17:46:18;;;;;;;22.20;10.00;;;;;;;6.95;56.96;98594.04;104968;1256;95332;-70
2023/02/21 17:48:47;;;;;;;20.00;9.40;;;;;;;6.89;57.27;98588.98;104914;1257;95700;-73
2023/02/21 17:51:21;;;;;;;26.20;10.20;;;;;;;6.83;56.98;98593.93;104917;1255;109268;-69
2023/02/21 17:53:52;;;;;;;20.60;7.60;;;;;;;6.79;57.35;98600.52;104970;1257;100567;-70
2023/02/21 17:56:23;;;;;;;22.00;7.40;;;;;;;6.74;57.37;98602.59;104734;1271;105312;-71
2023/02/21 17:58:51;;;;;;;21.00;7.70;;;;;;;6.68;57.34;98601.22;104895;1257;97392;-71
2023/02/21 18:01:20;;;;;;;19.80;7.40;;;;;;;6.63;57.30;98608.41;105046;1271;97130;-72
2023/02/21 18:03:48;;;;;;;70.70;30.50;;;;;;;6.59;57.17;98610.77;104760;1257;108315;-69
2023/02/21 18:06:17;;;;;;;24.80;8.90;;;;;;;6.58;57.24;98615.27;104844;1257;101571;-70
2023/02/21 18:08:46;;;;;;;24.80;8.20;;;;;;;6.59;57.10;98616.04;105929;1254;107719;-70
2023/02/21 18:11:17;;;;;;;20.70;6.70;;;;;;;6.62;56.65;98616.76;104530;1257;97920;-69
2023/02/21 18:13:46;;;;;;;27.60;10.40;;;;;;;6.62;56.83;98623.61;108538;1253;94917;-70
2023/02/21 18:16:14;;;;;;;27.50;10.70;;;;;;;6.61;56.50;98625.11;105111;1256;109486;-69
2023/02/21 18:18:43;;;;;;;27.70;9.50;;;;;;;6.60;56.73;98626.55;104744;1276;101288;-71
2023/02/21 18:21:12;;;;;;;17.80;5.40;;;;;;;6.58;56.93;98628.30;104668;1260;108939;-70
2023/02/21 18:23:45;;;;;;;20.50;6.40;;;;;;;6.58;56.24;98638.17;104865;1253;96602;-70
2023/02/21 18:26:13;;;;;;;17.80;5.30;;;;;;;6.59;55.63;98639.50;104753;1258;96612;-72
2023/02/21 18:28:41;;;;;;;21.30;6.40;;;;;;;6.59;55.75;98643.33;104880;1255;110440;-72
2023/02/21 18:31:09;;;;;;;18.60;5.70;;;;;;;6.60;55.22;98652.16;105048;1253;101442;-70
2023/02/21 18:33:38;;;;;;;17.50;4.60;;;;;;;6.60;55.52;98648.95;104830;1258;107426;-73
2023/02/21 18:36:09;;;;;;;15.90;5.30;;;;;;;6.60;55.29;98655.63;106281;1255;96672;-70
2023/02/21 18:38:39;;;;;;;17.50;4.70;;;;;;;6.60;55.88;98651.04;104561;1253;97932;-70
2023/02/21 18:41:13;;;;;;;21.30;6.00;;;;;;;6.60;55.91;98653.38;104967;1253;109825;-71
2023/02/21 18:43:42;;;;;;;19.90;7.00;;;;;;;6.59;56.46;98654.00;105114;1257;102191;-71
2023/02/21 18:46:14;;;;;;;22.20;5.80;;;;;;;6.54;56.56;98650.38;104955;1271;106317;-71
2023/02/21 18:48:49;;;;;;;21.40;5.80;;;;;;;6.50;56.32;98653.48;104697;1259;96595;-71
2023/02/21 18:51:19;;;;;;;19.40;5.20;;;;;;;6.45;56.28;98654.29;104792;1256;96870;-70
2023/02/21 18:53:48;;;;;;;16.90;4.80;;;;;;;6.39;56.19;98656.06;104615;1259;111518;-70
2023/02/21 18:56:19;;;;;;;17.20;4.60;;;;;;;6.33;55.50;98657.48;105042;1258;100930;-71
2023/02/21 18:58:49;;;;;;;16.20;4.90;;;;;;;6.31;55.39;98660.81;104959;1258;107553;-70
2023/02/21 19:01:20;;;;;;;16.70;4.70;;;;;;;6.29;56.04;98661.61;104872;1260;97414;-70
2023/02/21 19:03:50;;;;;;;18.30;4.60;;;;;;;6.24;56.05;98662.80;104759;1259;96664;-70
2023/02/21 19:06:21;;;;;;;18.40;4.10;;;;;;;6.21;55.66;98664.56;104813;1253;109825;-71
2023/02/21 19:08:49;;;;;;;18.10;5.00;;;;;;;6.20;55.65;98667.26;105135;1257;100580;-70
2023/02/21 19:11:17;;;;;;;17.50;4.60;;;;;;;6.17;56.12;98667.08;104960;1257;108283;-71
2023/02/21 19:13:48;;;;;;;17.30;4.60;;;;;;;6.14;56.36;98676.08;105024;1266;97091;-69
2023/02/21 19:16:18;;;;;;;18.80;5.00;;;;;;;6.11;55.88;98677.85;104836;1258;97915;-69
2023/02/21 19:18:50;;;;;;;18.00;4.80;;;;;;;6.07;55.51;98681.08;104940;1256;109924;-69
2023/02/21 19:21:22;;;;;;;19.10;5.20;;;;;;;6.04;56.03;98686.69;104754;1254;100803;-70
2023/02/21 19:23:50;;;;;;;20.30;6.00;;;;;;;5.99;56.05;98689.30;108599;1253;107612;-69
2023/02/21 19:26:18;;;;;;;19.80;5.90;;;;;;;5.92;56.22;98690.33;105606;1255;96588;-72
2023/02/21 19:28:46;;;;;;;17.10;5.10;;;;;;;5.87;56.26;98689.24;104745;1258;98346;-71
2023/02/21 19:31:18;;;;;;;21.40;5.90;;;;;;;5.80;56.25;98693.70;104851;1257;110112;-71
2023/02/21 19:33:46;;;;;;;20.10;5.00;;;;;;;5.73;56.32;98695.16;104833;1257;101628;-69
2023/02/21 19:36:15;;;;;;;19.20;5.40;;;;;;;5.68;56.43;98696.91;104606;1257;108523;-70
2023/02/21 19:38:44;;;;;;;17.30;4.70;;;;;;;5.61;56.34;98699.05;104894;1271;96594;-71
2023/02/21 19:41:11;;;;;;;24.60;6.50;;;;;;;5.54;56.25;98706.65;104777;1260;96904;-72
2023/02/21 19:43:41;;;;;;;22.50;6.90;;;;;;;5.49;56.17;98712.59;105056;1255;111412;-71
2023/02/21 19:46:26;;;;;;;18.10;5.70;;;;;;;5.44;56.18;98724.27;104964;1259;100591;-69
2023/02/21 19:48:55;;;;;;;17.40;7.10;;;;;;;5.36;56.11;98735.95;104978;1254;107681;-69
2023/02/21 19:51:26;;;;;;;16.50;5.60;;;;;;;5.30;56.26;98737.41;104863;1267;97845;-70
2023/02/21 19:53:57;;;;;;;20.10;6.40;;;;;;;5.24;56.26;98736.34;104576;1257;96620;-70
2023/02/21 19:56:26;;;;;;;16.90;5.20;;;;;;;5.18;56.31;98737.88;104804;1257;109482;-69
2023/02/21 19:58:56;;;;;;;20.90;7.70;;;;;;;5.12;56.40;98743.30;105015;1253;101410;-69
2023/02/21 20:01:25;;;;;;;19.40;6.30;;;;;;;5.07;56.42;98743.41;104773;1270;107922;-70
2023/02/21 20:03:54;;;;;;;21.90;7.60;;;;;;;5.02;56.54;98748.77;104962;1253;96588;-70
2023/02/21 20:06:23;;;;;;;18.00;6.80;;;;;;;4.98;56.44;98753.73;104874;1259;96610;-70
2023/02/21 20:08:52;;;;;;;21.60;7.90;;;;;;;4.92;56.45;98754.03;104676;1257;109896;-69
2023/02/21 20:11:22;;;;;;;20.50;6.20;;;;;;;4.87;56.45;98757.11;107329;1257;101606;-69
2023/02/21 20:13:50;;;;;;;20.30;6.70;;;;;;;4.83;56.71;98754.91;104732;1260;107717;-70
2023/02/21 20:16:21;;;;;;;16.60;6.30;;;;;;;4.81;56.50;98749.73;104824;1257;96668;-73
2023/02/21 20:18:50;;;;;;;21.00;6.90;;;;;;;4.79;56.48;98758.08;104736;1256;96619;-72
2023/02/21 20:21:29;;;;;;;23.80;6.40;;;;;;;4.77;56.71;98762.22;104891;1253;109392;-70
2023/02/21 20:23:58;;;;;;;18.40;6.10;;;;;;;4.77;56.69;98762.05;104743;1261;100547;-71
2023/02/21 20:26:28;;;;;;;15.90;4.40;;;;;;;4.76;56.65;98758.07;104804;1257;105721;-71
2023/02/21 20:28:56;;;;;;;21.00;5.80;;;;;;;4.73;56.80;98762.11;104912;1257;96706;-70
2023/02/21 20:31:28;;;;;;;28.90;9.70;;;;;;;4.70;56.67;98763.64;104878;1257;97015;-71
2023/02/21 20:34:07;;;;;;;26.10;7.80;;;;;;;4.66;56.68;98771.45;104969;1257;109972;-71
2023/02/21 20:36:39;;;;;;;44.40;20.10;;;;;;;4.60;56.68;98766.96;104775;1255;100641;-72
2023/02/21 20:39:18;;;;;;;54.10;25.50;;;;;;;4.55;56.76;98766.53;105023;1259;107385;-72
2023/02/21 20:41:46;;;;;;;37.80;17.50;;;;;;;4.50;56.74;98770.52;104586;1253;96674;-71
2023/02/21 20:44:14;;;;;;;35.90;15.60;;;;;;;4.46;56.86;98773.35;104780;1257;97950;-70
2023/02/21 20:46:43;;;;;;;39.80;19.30;;;;;;;4.44;56.87;98774.70;104980;1256;109526;-70
2023/02/21 20:49:13;;;;;;;38.10;15.20;;;;;;;4.40;56.86;98772.58;104983;1257;99734;-71
2023/02/21 20:51:42;;;;;;;32.50;14.50;;;;;;;4.37;56.83;98774.15;105025;1258;107337;-68
2023/02/21 20:54:18;;;;;;;30.10;11.70;;;;;;;4.32;56.87;98768.10;105039;1255;96591;-72
2023/02/21 20:56:49;;;;;;;38.80;18.00;;;;;;;4.25;56.92;98770.02;104762;1273;97818;-71
2023/02/21 20:59:24;;;;;;;43.90;19.30;;;;;;;4.19;56.95;98769.64;104994;1256;110026;-71
2023/02/21 21:01:53;;;;;;;50.40;20.10;;;;;;;4.13;57.06;98773.10;104984;1260;99811;-69
2023/02/21 21:04:33;;;;;;;44.60;19.70;;;;;;;4.08;57.21;98771.42;104876;1270;107706;-68
2023/02/21 21:07:06;;;;;;;41.90;16.90;;;;;;;4.01;57.03;98770.89;104853;1257;97403;-69
2023/02/21 21:09:36;;;;;;;38.30;14.50;;;;;;;3.98;57.20;98776.13;104917;1257;96781;-70
2023/02/21 21:12:08;;;;;;;36.40;14.50;;;;;;;3.96;57.03;98779.38;105100;1256;109563;-69
2023/02/21 21:14:40;;;;;;;39.00;13.70;;;;;;;3.95;57.22;98786.45;104713;1259;100910;-71
2023/02/21 21:17:12;;;;;;;30.90;11.70;;;;;;;3.94;57.36;98788.59;104695;1253;107230;-70
2023/02/21 21:19:42;;;;;;;35.60;12.20;;;;;;;3.96;57.48;98790.77;104822;1253;96592;-70
2023/02/21 21:22:14;;;;;;;44.10;18.70;;;;;;;4.01;57.55;98790.88;104896;1257;98259;-70
2023/02/21 21:24:42;;;;;;;38.90;16.70;;;;;;;4.07;57.46;98792.70;104801;1258;109894;-70
2023/02/21 21:27:13;;;;;;;37.90;17.60;;;;;;;4.11;57.65;98789.67;105090;1257;100771;-70
2023/02/21 21:29:43;;;;;;;42.70;21.10;;;;;;;4.16;57.76;98790.50;104596;1258;108254;-69
2023/02/21 21:32:15;;;;;;;35.40;15.80;;;;;;;4.22;57.80;98791.75;104742;1258;96606;-70
2023/02/21 21:34:46;;;;;;;30.00;13.90;;;;;;;4.27;57.86;98793.27;104794;1260;97842;-72
2023/02/21 21:37:17;;;;;;;33.10;12.70;;;;;;;4.31;57.69;98792.70;105123;1257;109933;-71
2023/02/21 21:39:48;;;;;;;28.60;11.40;;;;;;;4.35;57.75;98795.34;104703;1268;101473;-70
2023/02/21 21:42:17;;;;;;;34.30;13.80;;;;;;;4.36;57.93;98795.08;104643;1261;107042;-69
2023/02/21 21:44:53;;;;;;;35.90;14.60;;;;;;;4.37;58.20;98795.39;104791;1260;96636;-70
2023/02/21 21:47:30;;;;;;;32.50;14.30;;;;;;;4.37;58.17;98796.63;104632;1256;97916;-71
2023/02/21 21:50:01;;;;;;;33.90;12.50;;;;;;;4.38;58.12;98797.63;104922;1257;110764;-70
2023/02/21 21:52:29;;;;;;;36.70;14.60;;;;;;;4.39;58.29;98796.71;104850;1258;100930;-70
2023/02/21 21:54:58;;;;;;;32.00;12.50;;;;;;;4.39;58.70;98800.70;104865;1262;107221;-70
2023/02/21 21:57:26;;;;;;;30.20;12.80;;;;;;;4.39;58.50;98802.13;104934;1257;97897;-70
2023/02/21 21:59:56;;;;;;;37.30;15.20;;;;;;;4.40;58.57;98804.39;105067;1257;97086;-71
2023/02/21 22:02:23;;;;;;;38.80;18.50;;;;;;;4.40;59.13;98808.60;104776;1256;109957;-70